createdAt,value
2018-09-10T00:01:12.771Z,19.60
2018-09-10T00:03:44.571Z,19.60
2018-09-10T00:06:16.012Z,19.60
2018-09-10T00:08:49.771Z,19.60
2018-09-10T00:11:22.711Z,19.50
2018-09-10T00:13:54.131Z,19.50
2018-09-10T00:16:26.152Z,19.40
2018-09-10T00:18:58.493Z,19.50
2018-09-10T00:21:31.211Z,19.40
2018-09-10T00:24:02.732Z,19.40
2018-09-10T00:26:34.312Z,19.40
2018-09-10T00:29:06.851Z,19.40
2018-09-10T00:31:39.096Z,19.40
2018-09-10T00:34:09.952Z,19.40
2018-09-10T00:36:41.232Z,19.40
2018-09-10T00:39:14.793Z,19.40
2018-09-10T00:41:46.671Z,19.50
2018-09-10T00:44:18.391Z,19.40
2018-09-10T00:46:51.012Z,19.40
2018-09-10T00:49:22.592Z,19.40
2018-09-10T00:51:54.731Z,19.40
2018-09-10T00:54:26.632Z,19.40
2018-09-10T00:56:58.731Z,19.30
2018-09-10T00:59:30.512Z,19.30
2018-09-10T01:02:02.751Z,19.30
2018-09-10T01:04:34.752Z,19.30
2018-09-10T01:07:07.771Z,19.30
2018-09-10T01:09:39.131Z,19.20
2018-09-10T01:12:11.112Z,19.20
2018-09-10T01:14:42.412Z,19.10
2018-09-10T01:17:14.552Z,19.10
2018-09-10T01:19:46.452Z,19.10
2018-09-10T01:22:18.591Z,19.10
2018-09-10T01:24:49.751Z,19.10
2018-09-10T01:27:21.975Z,19.00
2018-09-10T01:29:53.572Z,18.90
2018-09-10T01:32:25.332Z,18.90
2018-09-10T01:35:01.272Z,18.90
2018-09-10T01:37:34.276Z,18.80
2018-09-10T01:40:06.453Z,18.80
2018-09-10T01:42:38.931Z,18.80
2018-09-10T01:45:11.392Z,18.80
2018-09-10T01:47:43.372Z,18.80
2018-09-10T01:50:15.032Z,18.80
2018-09-10T01:52:47.991Z,18.80
2018-09-10T01:55:19.511Z,18.70
2018-09-10T01:57:51.951Z,18.70
2018-09-10T02:00:23.492Z,18.70
2018-09-10T02:02:55.311Z,18.70
2018-09-10T02:05:26.792Z,18.70
2018-09-10T02:07:58.437Z,18.70
2018-09-10T02:10:30.232Z,18.70
2018-09-10T02:13:02.211Z,18.70
2018-09-10T02:15:37.292Z,18.60
2018-09-10T02:18:08.993Z,18.50
2018-09-10T02:20:41.152Z,18.40
2018-09-10T02:23:12.351Z,18.40
2018-09-10T02:25:44.172Z,18.40
2018-09-10T02:28:16.652Z,18.30
2018-09-10T02:30:48.212Z,18.30
2018-09-10T02:33:19.973Z,18.30
2018-09-10T02:35:51.472Z,18.30
2018-09-10T02:38:24.139Z,18.30
2018-09-10T02:40:55.792Z,18.30
2018-09-10T02:43:28.132Z,18.30
2018-09-10T02:45:59.812Z,18.40
2018-09-10T02:48:31.712Z,18.40
2018-09-10T02:51:04.313Z,18.40
2018-09-10T02:53:35.832Z,18.40
2018-09-10T02:56:08.532Z,18.40
2018-09-10T02:58:41.032Z,18.30
2018-09-10T03:01:12.532Z,18.30
2018-09-10T03:03:44.512Z,18.30
2018-09-10T03:06:15.971Z,18.20
2018-09-10T03:08:48.312Z,18.10
2018-09-10T03:11:20.153Z,18.10
2018-09-10T03:13:52.632Z,18.00
2018-09-10T03:16:25.652Z,18.10
2018-09-10T03:18:57.192Z,18.20
2018-09-10T03:21:29.436Z,18.10
2018-09-10T03:24:01.479Z,18.00
2018-09-10T03:26:32.635Z,18.00
2018-09-10T03:29:04.492Z,18.00
2018-09-10T03:31:36.511Z,18.00
2018-09-10T03:34:08.371Z,17.90
2018-09-10T03:36:42.112Z,17.90
2018-09-10T03:39:14.352Z,17.90
2018-09-10T03:41:46.652Z,17.90
2018-09-10T03:44:18.194Z,17.80
2018-09-10T03:46:51.272Z,17.80
2018-09-10T03:49:22.972Z,17.80
2018-09-10T03:51:54.792Z,17.80
2018-09-10T03:54:26.651Z,17.70
2018-09-10T03:56:58.752Z,17.80
2018-09-10T03:59:30.571Z,17.80
2018-09-10T04:02:02.192Z,17.80
2018-09-10T04:04:34.872Z,17.80
2018-09-10T04:07:06.271Z,17.80
2018-09-10T04:09:38.251Z,17.70
2018-09-10T04:12:09.212Z,17.80
2018-09-10T04:14:40.812Z,17.80
2018-09-10T04:17:12.979Z,17.80
2018-09-10T04:19:44.971Z,17.80
2018-09-10T04:22:16.771Z,17.90
2018-09-10T04:24:48.651Z,17.90
2018-09-10T04:27:20.371Z,18.00
2018-09-10T04:29:52.651Z,18.00
2018-09-10T04:32:24.791Z,18.00
2018-09-10T04:34:56.672Z,18.10
2018-09-10T04:37:28.612Z,18.20
2018-09-10T04:40:00.812Z,18.10
2018-09-10T04:42:32.351Z,18.00
2018-09-10T04:45:04.012Z,18.00
2018-09-10T04:47:35.392Z,18.00
2018-09-10T04:50:07.853Z,18.00
2018-09-10T04:52:39.752Z,18.00
2018-09-10T04:55:11.832Z,18.10
2018-09-10T04:57:44.352Z,18.10
2018-09-10T05:00:15.592Z,18.20
2018-09-10T05:02:48.052Z,18.20
2018-09-10T05:05:18.792Z,18.10
2018-09-10T05:07:51.392Z,18.10
2018-09-10T05:10:22.632Z,18.10
2018-09-10T05:12:54.732Z,18.10
2018-09-10T05:15:26.492Z,18.00
2018-09-10T05:17:58.452Z,17.90
2018-09-10T05:20:30.112Z,17.90
2018-09-10T05:23:02.511Z,17.90
2018-09-10T05:25:34.532Z,18.00
2018-09-10T05:28:07.106Z,18.00
2018-09-10T05:30:38.691Z,18.00
2018-09-10T05:33:10.711Z,18.10
2018-09-10T05:35:42.815Z,18.10
2018-09-10T05:38:15.516Z,18.00
2018-09-10T05:40:47.032Z,18.00
2018-09-10T05:43:18.252Z,18.00
2018-09-10T05:45:50.312Z,18.00
2018-09-10T05:48:22.231Z,18.00
2018-09-10T05:50:54.453Z,18.00
2018-09-10T05:53:26.232Z,18.00
2018-09-10T05:55:58.433Z,18.00
2018-09-10T05:58:30.232Z,18.10
2018-09-10T06:01:02.212Z,18.10
2018-09-10T06:03:33.872Z,18.10
2018-09-10T06:06:06.152Z,18.10
2018-09-10T06:08:39.154Z,18.10
2018-09-10T06:11:10.992Z,18.20
2018-09-10T06:13:43.271Z,18.20
2018-09-10T06:16:14.872Z,18.20
2018-09-10T06:18:46.913Z,18.20
2018-09-10T06:21:18.492Z,18.20
2018-09-10T06:23:50.776Z,18.20
2018-09-10T06:26:21.915Z,18.20
2018-09-10T06:28:54.132Z,18.20
2018-09-10T06:31:25.412Z,18.20
2018-09-10T06:33:58.735Z,18.30
2018-09-10T06:36:29.919Z,18.40
2018-09-10T06:39:01.752Z,18.50
2018-09-10T06:41:33.714Z,18.70
2018-09-10T06:44:05.811Z,18.80
2018-09-10T06:46:37.592Z,18.90
2018-09-10T06:49:08.613Z,18.90
2018-09-10T06:51:40.352Z,18.90
2018-09-10T06:54:12.531Z,19.10
2018-09-10T06:56:44.231Z,19.20
2018-09-10T06:59:16.252Z,19.40
2018-09-10T07:01:47.692Z,19.50
2018-09-10T07:04:19.852Z,19.60
2018-09-10T07:06:51.631Z,19.70
2018-09-10T07:09:24.097Z,19.70
2018-09-10T07:11:55.672Z,19.90
2018-09-10T07:14:28.012Z,20.00
2018-09-10T07:16:59.192Z,20.20
2018-09-10T07:19:31.712Z,20.40
2018-09-10T07:22:03.272Z,20.50
2018-09-10T07:24:35.412Z,20.60
2018-09-10T07:27:07.036Z,20.80
2018-09-10T07:29:39.360Z,20.90
2018-09-10T07:32:11.797Z,21.00
2018-09-10T07:34:43.412Z,21.10
2018-09-10T07:37:15.038Z,21.20
2018-09-10T07:39:46.898Z,21.20
2018-09-10T07:42:19.279Z,21.30
2018-09-10T07:44:50.498Z,21.20
2018-09-10T07:47:21.578Z,21.30
2018-09-10T07:49:53.539Z,21.20
2018-09-10T07:52:26.299Z,21.20
2018-09-10T07:54:58.458Z,21.30
2018-09-10T07:57:30.398Z,21.40
2018-09-10T08:00:01.885Z,21.40
2018-09-10T08:02:33.898Z,21.40
2018-09-10T08:05:05.979Z,21.50
2018-09-10T08:07:38.099Z,21.50
2018-09-10T08:10:11.338Z,21.50
2018-09-10T08:12:43.358Z,21.60
2018-09-10T08:15:15.857Z,21.60
2018-09-10T08:17:48.617Z,21.60
2018-09-10T08:20:20.656Z,21.70
2018-09-10T08:22:52.718Z,21.80
2018-09-10T08:25:25.580Z,22.00
2018-09-10T08:27:57.439Z,22.00
2018-09-10T08:30:29.181Z,22.00
2018-09-10T08:33:00.857Z,22.00
2018-09-10T08:35:33.038Z,21.90
2018-09-10T08:38:05.878Z,21.90
2018-09-10T08:40:37.778Z,22.00
2018-09-10T08:43:09.079Z,22.00
2018-09-10T08:45:40.818Z,22.00
2018-09-10T08:48:12.685Z,22.10
2018-09-10T08:50:44.080Z,22.20
2018-09-10T08:53:15.686Z,22.20
2018-09-10T08:55:48.462Z,22.20
2018-09-10T08:58:21.892Z,22.20
2018-09-10T09:00:53.027Z,22.30
2018-09-10T09:10:28.445Z,22.50
2018-09-10T09:12:59.643Z,22.30
2018-09-10T09:15:31.564Z,22.40
2018-09-10T09:18:03.364Z,22.60
2018-09-10T09:20:34.743Z,22.70
2018-09-10T09:23:06.239Z,22.80
2018-09-10T09:25:37.824Z,23.00
2018-09-10T09:28:08.629Z,23.00
2018-09-10T09:30:40.601Z,23.00
2018-09-10T09:33:12.000Z,23.00
2018-09-10T09:35:48.143Z,23.10
2018-09-10T09:38:24.205Z,23.20
2018-09-10T09:41:00.630Z,23.30
2018-09-10T09:43:37.043Z,23.40
2018-09-10T09:46:10.461Z,23.30
2018-09-10T09:48:42.085Z,23.40
2018-09-10T09:51:14.364Z,23.40
2018-09-10T09:53:46.127Z,23.50
2018-09-10T09:56:18.745Z,23.50
2018-09-10T09:58:53.065Z,23.50
2018-09-10T10:03:32.576Z,23.60
2018-09-10T10:06:04.398Z,23.60
2018-09-10T10:08:36.814Z,23.70
2018-09-10T10:11:08.547Z,23.60
2018-09-10T10:13:40.460Z,23.60
2018-09-10T10:16:12.325Z,23.50
2018-09-10T10:18:43.989Z,23.70
2018-09-10T10:21:15.248Z,23.90
2018-09-10T10:23:47.048Z,24.10
2018-09-10T10:26:18.469Z,24.20
2018-09-10T10:28:50.918Z,24.50
2018-09-10T10:31:22.516Z,24.60
2018-09-10T10:33:54.898Z,24.70
2018-09-10T10:36:26.358Z,24.50
2018-09-10T10:38:58.257Z,24.50
2018-09-10T10:41:30.219Z,24.40
2018-09-10T10:44:02.399Z,24.50
2018-09-10T10:46:34.239Z,24.60
2018-09-10T10:49:06.742Z,24.70
2018-09-10T10:51:39.282Z,24.70
2018-09-10T10:54:10.898Z,25.00
2018-09-10T10:56:42.881Z,25.20
2018-09-10T10:59:14.057Z,25.40
2018-09-10T11:01:46.843Z,25.50
2018-09-10T11:04:19.623Z,25.40
2018-09-10T11:06:51.301Z,25.30
2018-09-10T11:09:23.560Z,25.30
2018-09-10T11:11:55.027Z,25.50
2018-09-10T11:14:26.926Z,25.70
2018-09-10T11:16:58.480Z,25.80
2018-09-10T11:19:30.981Z,25.90
2018-09-10T11:22:02.500Z,25.70
2018-09-10T11:24:34.760Z,25.60
2018-09-10T11:27:05.982Z,25.80
2018-09-10T11:29:38.381Z,26.10
2018-09-10T11:32:09.641Z,26.00
2018-09-10T11:34:42.675Z,26.20
2018-09-10T11:37:13.861Z,26.30
2018-09-10T11:39:46.420Z,26.40
2018-09-10T11:42:18.280Z,26.60
2018-09-10T11:44:50.580Z,26.60
2018-09-10T11:47:22.620Z,26.60
2018-09-10T11:49:53.640Z,26.50
2018-09-10T11:52:25.100Z,26.50
2018-09-10T11:54:56.540Z,26.50
2018-09-10T11:57:27.840Z,26.50
2018-09-10T11:59:59.899Z,26.60
2018-09-10T12:02:31.560Z,26.60
2018-09-10T12:05:02.999Z,26.60
2018-09-10T12:07:34.838Z,26.50
2018-09-10T12:10:06.400Z,26.70
2018-09-10T12:12:38.277Z,26.80
2018-09-10T12:15:10.758Z,26.80
2018-09-10T12:17:42.657Z,26.90
2018-09-10T12:20:14.717Z,27.00
2018-09-10T12:22:45.740Z,27.00
2018-09-10T12:25:18.300Z,27.00
2018-09-10T12:27:49.859Z,27.00
2018-09-10T12:30:20.759Z,27.10
2018-09-10T12:32:51.764Z,27.20
2018-09-10T12:35:23.566Z,27.40
2018-09-10T12:37:55.867Z,27.50
2018-09-10T12:40:29.522Z,27.70
2018-09-10T12:43:01.685Z,27.90
2018-09-10T12:45:34.501Z,28.00
2018-09-10T12:48:05.804Z,28.10
2018-09-10T12:50:37.912Z,28.30
2018-09-10T12:53:09.253Z,28.50
2018-09-10T12:55:40.032Z,28.60
2018-09-10T12:58:12.031Z,28.60
2018-09-10T13:00:44.112Z,28.40
2018-09-10T13:03:16.416Z,28.30
2018-09-10T13:05:48.092Z,28.20
2018-09-10T13:08:19.573Z,28.20
2018-09-10T13:10:52.593Z,28.20
2018-09-10T13:13:24.542Z,28.40
2018-09-10T13:15:56.521Z,28.50
2018-09-10T13:18:28.129Z,28.60
2018-09-10T13:20:59.956Z,28.70
2018-09-10T13:23:31.657Z,28.80
2018-09-10T13:26:03.545Z,28.80
2018-09-10T13:28:35.437Z,29.00
2018-09-10T13:31:08.207Z,29.00
2018-09-10T13:33:39.402Z,29.10
2018-09-10T13:36:12.326Z,29.00
2018-09-10T13:38:44.240Z,29.00
2018-09-10T13:41:15.637Z,28.90
2018-09-10T13:43:47.399Z,28.80
2018-09-10T13:46:19.165Z,28.60
2018-09-10T13:48:50.777Z,28.40
2018-09-10T13:51:23.340Z,28.20
2018-09-10T13:53:54.928Z,28.10
2018-09-10T13:56:26.620Z,28.00
2018-09-10T13:58:58.509Z,27.90
2018-09-10T14:01:31.027Z,27.80
2018-09-10T14:04:01.813Z,27.70
2018-09-10T14:06:33.778Z,27.60
2018-09-10T14:09:06.536Z,27.50
2018-09-10T14:11:38.003Z,27.40
2018-09-10T14:14:10.261Z,27.40
2018-09-10T14:16:41.434Z,27.30
2018-09-10T14:19:13.483Z,27.20
2018-09-10T14:21:45.617Z,27.20
2018-09-10T14:24:17.635Z,27.10
2018-09-10T14:26:50.455Z,27.00
2018-09-10T14:29:21.590Z,27.00
2018-09-10T14:31:52.390Z,26.90
2018-09-10T14:34:23.841Z,26.90
2018-09-10T14:36:56.459Z,26.90
2018-09-10T14:39:28.338Z,26.80
2018-09-10T14:42:00.040Z,26.80
2018-09-10T14:44:32.485Z,26.80
2018-09-10T14:47:04.439Z,26.80
2018-09-10T14:49:36.498Z,26.80
2018-09-10T14:52:09.142Z,26.80
2018-09-10T14:54:40.363Z,26.70
2018-09-10T14:57:13.502Z,26.60
2018-09-10T14:59:45.002Z,26.60
2018-09-10T15:02:17.285Z,26.50
2018-09-10T15:04:49.142Z,26.50
2018-09-10T15:07:20.942Z,26.50
2018-09-10T15:09:53.262Z,26.60
2018-09-10T15:12:25.084Z,26.60
2018-09-10T15:14:56.356Z,26.50
2018-09-10T15:17:29.895Z,26.50
2018-09-10T15:20:02.116Z,26.50
2018-09-10T15:22:33.877Z,26.50
2018-09-10T15:25:06.278Z,26.50
2018-09-10T15:27:38.598Z,26.40
2018-09-10T15:30:10.556Z,26.40
2018-09-10T15:32:43.196Z,26.40
2018-09-10T15:35:17.596Z,26.30
2018-09-10T15:37:50.072Z,26.30
2018-09-10T15:40:21.424Z,26.20
2018-09-10T15:42:53.357Z,26.20
2018-09-10T15:45:27.396Z,26.10
2018-09-10T15:48:00.517Z,26.10
2018-09-10T15:50:31.530Z,26.10
2018-09-10T15:53:03.129Z,26.00
2018-09-10T15:55:34.908Z,26.00
2018-09-10T15:58:06.855Z,26.00
2018-09-10T16:00:39.535Z,26.00
2018-09-10T16:03:12.415Z,26.10
2018-09-10T16:05:45.059Z,26.20
2018-09-10T16:08:16.780Z,26.20
2018-09-10T16:10:48.623Z,26.10
2018-09-10T16:13:20.056Z,26.00
2018-09-10T16:15:52.695Z,26.00
2018-09-10T16:18:25.763Z,26.00
2018-09-10T16:20:58.288Z,25.90
2018-09-10T16:23:29.867Z,25.80
2018-09-10T16:26:02.669Z,25.80
2018-09-10T16:28:34.818Z,25.70
2018-09-10T16:31:06.838Z,25.60
2018-09-10T16:33:39.379Z,25.60
2018-09-10T16:36:11.682Z,25.50
2018-09-10T16:38:42.737Z,25.50
2018-09-10T16:41:14.900Z,25.40
2018-09-10T16:43:47.678Z,25.40
2018-09-10T16:46:20.464Z,25.30
2018-09-10T16:48:52.597Z,25.30
2018-09-10T16:51:24.199Z,25.30
2018-09-10T16:53:56.462Z,25.30
2018-09-10T16:56:27.036Z,25.20
2018-09-10T16:59:02.798Z,25.10
2018-09-10T17:01:34.855Z,25.10
2018-09-10T17:04:07.897Z,25.00
2018-09-10T17:06:40.254Z,24.90
2018-09-10T17:09:12.895Z,24.80
2018-09-10T17:11:47.078Z,24.70
2018-09-10T17:14:20.086Z,25.90
2018-09-10T17:16:52.960Z,24.60
2018-09-10T17:19:26.018Z,24.50
2018-09-10T17:21:57.766Z,24.50
2018-09-10T17:24:30.178Z,24.40
2018-09-10T17:27:02.218Z,24.40
2018-09-10T17:29:34.939Z,24.30
2018-09-10T17:32:08.660Z,24.20
2018-09-10T17:34:41.119Z,24.20
2018-09-10T17:37:13.321Z,24.20
2018-09-10T17:39:46.120Z,24.10
2018-09-10T17:42:17.978Z,24.00
2018-09-10T17:44:51.678Z,24.00
2018-09-10T17:47:24.837Z,23.90
2018-09-10T17:49:57.198Z,23.90
2018-09-10T17:52:28.778Z,23.80
2018-09-10T17:55:03.238Z,23.80
2018-09-10T17:57:36.659Z,23.70
2018-09-10T18:00:09.223Z,23.70
2018-09-10T18:02:42.065Z,23.60
2018-09-10T18:05:14.726Z,23.50
2018-09-10T18:07:47.258Z,23.40
2018-09-10T18:10:22.885Z,23.40
2018-09-10T18:12:55.838Z,23.40
2018-09-10T18:15:29.837Z,23.30
2018-09-10T18:18:10.637Z,23.30
2018-09-10T18:21:45.185Z,23.20
2018-09-10T18:24:20.425Z,23.20
2018-09-10T18:26:54.230Z,23.10
2018-09-10T18:29:36.067Z,23.00
2018-09-10T18:32:07.825Z,23.00
2018-09-10T18:34:40.467Z,22.90
2018-09-10T18:37:12.792Z,23.00
2018-09-10T18:39:46.067Z,22.90
2018-09-10T18:42:20.366Z,22.90
2018-09-10T18:45:55.947Z,22.80
2018-09-10T18:48:27.845Z,22.80
2018-09-10T18:51:01.889Z,22.70
2018-09-10T18:53:35.186Z,22.70
2018-09-10T18:56:06.305Z,22.70
2018-09-10T18:58:39.086Z,22.70
2018-09-10T19:01:11.298Z,22.70
2018-09-10T19:03:43.526Z,22.70
2018-09-10T19:06:15.366Z,22.70
2018-09-10T19:08:47.586Z,22.70
2018-09-10T19:11:21.746Z,22.70
2018-09-10T19:14:01.726Z,22.60
2018-09-10T19:16:33.745Z,22.60
2018-09-10T19:19:06.986Z,22.50
2018-09-10T19:21:38.929Z,22.40
2018-09-10T19:24:11.027Z,22.30
2018-09-10T19:29:57.228Z,22.20
2018-09-10T19:32:28.486Z,22.20
2018-09-10T19:35:01.626Z,22.20
2018-09-10T19:37:34.688Z,22.10
2018-09-10T19:40:10.026Z,22.10
2018-09-10T19:42:42.567Z,22.00
2018-09-10T19:45:14.868Z,22.00
2018-09-10T19:47:47.848Z,21.90
2018-09-10T19:50:21.127Z,21.90
2018-09-10T19:52:53.588Z,21.80
2018-09-10T19:55:55.926Z,21.80
2018-09-10T19:58:27.946Z,21.80
2018-09-10T20:01:00.829Z,21.70
2018-09-10T20:03:47.288Z,21.70
2018-09-10T20:06:34.125Z,21.60
2018-09-10T20:09:11.506Z,21.60
2018-09-10T20:11:45.947Z,21.50
2018-09-10T20:14:19.168Z,21.40
2018-09-10T20:16:56.747Z,21.40
2018-09-10T20:19:33.266Z,21.40
2018-09-10T20:22:15.047Z,21.40
2018-09-10T20:24:47.328Z,21.30
2018-09-10T20:27:20.247Z,21.20
2018-09-10T20:29:53.007Z,21.20
2018-09-10T20:32:26.387Z,21.20
2018-09-10T20:34:59.988Z,21.10
2018-09-10T20:37:33.307Z,21.10
2018-09-10T20:40:06.389Z,21.10
2018-09-10T20:42:38.826Z,21.20
2018-09-10T20:45:13.567Z,21.20
2018-09-10T20:47:45.528Z,21.20
2018-09-10T20:50:18.468Z,21.20
2018-09-10T20:52:54.688Z,21.20
2018-09-10T20:55:39.826Z,21.30
2018-09-10T20:58:11.906Z,21.30
2018-09-10T21:00:43.886Z,21.30
2018-09-10T21:03:18.026Z,21.40
2018-09-10T21:05:51.106Z,21.30
2018-09-10T21:08:23.725Z,21.30
2018-09-10T21:10:56.469Z,21.30
2018-09-10T21:13:29.265Z,21.30
2018-09-10T21:16:01.325Z,21.30
2018-09-10T21:18:35.992Z,21.30
2018-09-10T21:21:07.947Z,21.20
2018-09-10T21:23:40.805Z,21.10
2018-09-10T21:26:12.906Z,21.00
2018-09-10T21:28:44.786Z,21.00
2018-09-10T21:31:16.805Z,20.80
2018-09-10T21:33:51.865Z,20.80
2018-09-10T21:36:24.007Z,20.70
2018-09-10T21:38:56.465Z,20.60
2018-09-10T21:41:28.646Z,20.50
2018-09-10T21:44:00.946Z,20.40
2018-09-10T21:46:32.846Z,20.40
2018-09-10T21:49:06.406Z,20.40
2018-09-10T21:51:38.328Z,20.50
2018-09-10T21:54:10.626Z,20.40
2018-09-10T21:56:43.326Z,20.40
2018-09-10T21:59:14.568Z,20.50
2018-09-10T22:01:46.933Z,20.50
2018-09-10T22:04:19.046Z,20.60
2018-09-10T22:06:51.347Z,20.60
2018-09-10T22:09:22.714Z,20.60
2018-09-10T22:11:58.774Z,20.70
2018-09-10T22:14:30.854Z,20.70
2018-09-10T22:17:03.097Z,20.70
2018-09-10T22:19:35.354Z,20.80
2018-09-10T22:22:07.595Z,20.80
2018-09-10T22:24:39.948Z,20.80
2018-09-10T22:27:11.917Z,20.80
2018-09-10T22:29:44.074Z,20.80
2018-09-10T22:32:17.214Z,20.80
2018-09-10T22:34:49.434Z,20.90
2018-09-10T22:37:22.254Z,20.90
2018-09-10T22:39:54.395Z,20.90
2018-09-10T22:42:26.696Z,20.90
2018-09-10T22:44:58.674Z,20.90
2018-09-10T22:47:30.895Z,20.90
2018-09-10T22:50:02.715Z,20.80
2018-09-10T22:52:35.434Z,20.70
2018-09-10T22:55:08.334Z,20.50
2018-09-10T22:57:39.535Z,20.20
2018-09-10T23:00:11.635Z,20.30
2018-09-10T23:02:43.614Z,20.40
2018-09-10T23:05:14.996Z,20.60
2018-09-10T23:07:46.795Z,20.70
2018-09-10T23:10:19.375Z,20.70
2018-09-10T23:12:51.034Z,20.80
2018-09-10T23:15:22.856Z,20.80
2018-09-10T23:17:54.674Z,20.90
2018-09-10T23:20:32.254Z,20.90
2018-09-10T23:23:04.153Z,20.90
2018-09-10T23:25:36.153Z,20.90
2018-09-10T23:28:08.333Z,20.90
2018-09-10T23:30:40.234Z,20.90
2018-09-10T23:33:11.575Z,20.90
2018-09-10T23:35:43.874Z,21.00
2018-09-10T23:38:15.254Z,20.90
2018-09-10T23:40:47.234Z,20.80
2018-09-10T23:43:18.376Z,20.60
2018-09-10T23:45:50.093Z,20.50
2018-09-10T23:48:21.993Z,20.50
2018-09-10T23:50:53.773Z,20.50
2018-09-10T23:53:25.453Z,20.50
2018-09-10T23:55:57.273Z,20.60
2018-09-10T23:58:29.953Z,20.60
